sensor_id;sensor_type;location;lat;lon;timestamp;pressure;altitude;pressure_sealevel;temperature;humidity
60355;BME280;46198;51.464;-0.066;2022-11-09T00:01:32;99940.38;;;11.32;100.00
60355;BME280;46198;51.464;-0.066;2022-11-09T00:04:02;99953.59;;;11.28;100.00
60355;BME280;46198;51.464;-0.066;2022-11-09T00:06:31;99954.41;;;11.29;100.00
60355;BME280;46198;51.464;-0.066;2022-11-09T00:09:00;99954.41;;;11.29;100.00
60355;BME280;46198;51.464;-0.066;2022-11-09T00:11:35;99953.28;;;11.25;100.00
60355;BME280;46198;51.464;-0.066;2022-11-09T00:14:04;99951.16;;;11.27;100.00
60355;BME280;46198;51.464;-0.066;2022-11-09T00:16:32;99959.41;;;11.32;100.00
60355;BME280;46198;51.464;-0.066;2022-11-09T00:19:00;99950.56;;;11.25;100.00
60355;BME280;46198;51.464;-0.066;2022-11-09T00:21:28;99944.53;;;11.23;100.00
60355;BME280;46198;51.464;-0.066;2022-11-09T00:23:56;99948.34;;;11.22;100.00
60355;BME280;46198;51.464;-0.066;2022-11-09T00:26:25;99943.56;;;11.29;100.00
60355;BME280;46198;51.464;-0.066;2022-11-09T00:28:54;99942.72;;;11.28;100.00
60355;BME280;46198;51.464;-0.066;2022-11-09T00:31:23;99953.59;;;11.28;100.00
60355;BME280;46198;51.464;-0.066;2022-11-09T00:33:52;99944.06;;;11.26;100.00
60355;BME280;46198;51.464;-0.066;2022-11-09T00:36:22;99951.72;;;11.29;100.00
60355;BME280;46198;51.464;-0.066;2022-11-09T00:38:52;99950.66;;;11.30;100.00
60355;BME280;46198;51.464;-0.066;2022-11-09T00:41:21;99947.34;;;11.28;100.00
60355;BME280;46198;51.464;-0.066;2022-11-09T00:43:49;99952.78;;;11.28;100.00
60355;BME280;46198;51.464;-0.066;2022-11-09T00:46:19;99957.13;;;11.29;100.00
60355;BME280;46198;51.464;-0.066;2022-11-09T00:48:49;99956.59;;;11.27;100.00
60355;BME280;46198;51.464;-0.066;2022-11-09T00:51:17;99955.00;;;11.31;100.00
60355;BME280;46198;51.464;-0.066;2022-11-09T00:53:45;99950.25;;;11.21;100.00
60355;BME280;46198;51.464;-0.066;2022-11-09T00:56:14;99964.16;;;11.25;100.00
60355;BME280;46198;51.464;-0.066;2022-11-09T00:58:42;99960.84;;;11.23;100.00
60355;BME280;46198;51.464;-0.066;2022-11-09T01:01:12;99954.59;;;11.22;100.00
60355;BME280;46198;51.464;-0.066;2022-11-09T01:03:43;99957.09;;;11.24;100.00
60355;BME280;46198;51.464;-0.066;2022-11-09T01:06:14;99965.47;;;11.22;100.00
60355;BME280;46198;51.464;-0.066;2022-11-09T01:08:43;99975.50;;;11.22;100.00
60355;BME280;46198;51.464;-0.066;2022-11-09T01:11:14;99969.59;;;11.25;100.00
60355;BME280;46198;51.464;-0.066;2022-11-09T01:13:43;99974.44;;;11.23;100.00
60355;BME280;46198;51.464;-0.066;2022-11-09T01:16:13;99971.72;;;11.23;100.00
60355;BME280;46198;51.464;-0.066;2022-11-09T01:18:42;99984.72;;;11.21;100.00
60355;BME280;46198;51.464;-0.066;2022-11-09T01:21:12;99977.50;;;11.26;100.00
60355;BME280;46198;51.464;-0.066;2022-11-09T01:23:41;99978.31;;;11.27;100.00
60355;BME280;46198;51.464;-0.066;2022-11-09T01:26:11;99978.88;;;11.29;100.00
60355;BME280;46198;51.464;-0.066;2022-11-09T01:28:40;99975.84;;;11.25;100.00
60355;BME280;46198;51.464;-0.066;2022-11-09T01:31:10;99979.97;;;11.28;100.00
60355;BME280;46198;51.464;-0.066;2022-11-09T01:33:39;99978.22;;;11.22;100.00
60355;BME280;46198;51.464;-0.066;2022-11-09T01:36:10;99985.81;;;11.20;100.00
60355;BME280;46198;51.464;-0.066;2022-11-09T01:38:39;99978.97;;;11.17;100.00
60355;BME280;46198;51.464;-0.066;2022-11-09T01:41:10;99975.66;;;11.15;100.00
60355;BME280;46198;51.464;-0.066;2022-11-09T01:43:39;99978.72;;;11.19;100.00
60355;BME280;46198;51.464;-0.066;2022-11-09T01:46:15;99976.00;;;11.19;100.00
60355;BME280;46198;51.464;-0.066;2022-11-09T01:48:47;99986.38;;;11.22;100.00
60355;BME280;46198;51.464;-0.066;2022-11-09T01:51:23;99992.97;;;11.26;100.00
60355;BME280;46198;51.464;-0.066;2022-11-09T01:53:56;99990.25;;;11.26;100.00
60355;BME280;46198;51.464;-0.066;2022-11-09T01:56:26;99987.53;;;11.26;100.00
60355;BME280;46198;51.464;-0.066;2022-11-09T01:58:59;99988.59;;;11.25;100.00
60355;BME280;46198;51.464;-0.066;2022-11-09T02:01:29;99989.34;;;11.20;100.00
60355;BME280;46198;51.464;-0.066;2022-11-09T02:04:03;99992.41;;;11.24;100.00
60355;BME280;46198;51.464;-0.066;2022-11-09T02:06:34;99986.38;;;11.22;100.00
60355;BME280;46198;51.464;-0.066;2022-11-09T02:09:08;99997.75;;;11.19;100.00
60355;BME280;46198;51.464;-0.066;2022-11-09T02:11:37;99995.13;;;11.24;100.00
60355;BME280;46198;51.464;-0.066;2022-11-09T02:14:06;100004.22;;;11.18;100.00
60355;BME280;46198;51.464;-0.066;2022-11-09T02:16:34;99998.97;;;11.11;100.00
60355;BME280;46198;51.464;-0.066;2022-11-09T02:19:03;100005.31;;;11.17;100.00
60355;BME280;46198;51.464;-0.066;2022-11-09T02:21:33;99997.88;;;11.12;100.00
60355;BME280;46198;51.464;-0.066;2022-11-09T02:24:01;100000.38;;;11.14;100.00
60355;BME280;46198;51.464;-0.066;2022-11-09T02:26:35;100002.50;;;11.12;100.00
60355;BME280;46198;51.464;-0.066;2022-11-09T02:29:07;99997.56;;;11.08;100.00
60355;BME280;46198;51.464;-0.066;2022-11-09T02:31:40;99988.19;;;11.16;100.00
60355;BME280;46198;51.464;-0.066;2022-11-09T02:34:12;99994.13;;;11.13;100.00
60355;BME280;46198;51.464;-0.066;2022-11-09T02:36:43;99999.19;;;11.09;100.00
60355;BME280;46198;51.464;-0.066;2022-11-09T02:39:18;100001.69;;;11.11;100.00
60355;BME280;46198;51.464;-0.066;2022-11-09T02:41:53;99997.75;;;11.19;100.00
60355;BME280;46198;51.464;-0.066;2022-11-09T02:44:27;100002.28;;;11.13;100.00
60355;BME280;46198;51.464;-0.066;2022-11-09T02:46:57;100008.75;;;11.12;100.00
60355;BME280;46198;51.464;-0.066;2022-11-09T02:49:26;100000.88;;;11.11;100.00
60355;BME280;46198;51.464;-0.066;2022-11-09T02:51:55;100007.13;;;11.11;100.00
60355;BME280;46198;51.464;-0.066;2022-11-09T02:54:23;100012.28;;;11.13;100.00
60355;BME280;46198;51.464;-0.066;2022-11-09T02:56:53;100011.25;;;11.14;100.00
60355;BME280;46198;51.464;-0.066;2022-11-09T02:59:21;100006.84;;;11.13;100.00
60355;BME280;46198;51.464;-0.066;2022-11-09T03:01:49;100010.66;;;11.12;100.00
60355;BME280;46198;51.464;-0.066;2022-11-09T03:04:17;100010.16;;;11.15;100.00
60355;BME280;46198;51.464;-0.066;2022-11-09T03:06:46;100011.81;;;11.16;100.00
60355;BME280;46198;51.464;-0.066;2022-11-09T03:09:18;100005.31;;;11.17;100.00
60355;BME280;46198;51.464;-0.066;2022-11-09T03:11:46;100010.88;;;11.10;100.00
60355;BME280;46198;51.464;-0.066;2022-11-09T03:14:15;100003.31;;;11.12;100.00
60355;BME280;46198;51.464;-0.066;2022-11-09T03:16:51;100015.50;;;11.09;100.00
60355;BME280;46198;51.464;-0.066;2022-11-09T03:19:20;100015.50;;;11.09;100.00
60355;BME280;46198;51.464;-0.066;2022-11-09T03:21:50;100019.13;;;11.15;100.00
60355;BME280;46198;51.464;-0.066;2022-11-09T03:24:23;100005.81;;;11.14;100.00
60355;BME280;46198;51.464;-0.066;2022-11-09T03:26:55;100015.38;;;11.16;100.00
60355;BME280;46198;51.464;-0.066;2022-11-09T03:29:23;100011.25;;;11.14;100.00
60355;BME280;46198;51.464;-0.066;2022-11-09T03:31:51;100015.00;;;11.13;100.00
60355;BME280;46198;51.464;-0.066;2022-11-09T03:34:19;100021.28;;;11.13;100.00
60355;BME280;46198;51.464;-0.066;2022-11-09T03:36:47;100022.09;;;11.14;100.00
60355;BME280;46198;51.464;-0.066;2022-11-09T03:39:15;100025.88;;;11.13;100.00
60355;BME280;46198;51.464;-0.066;2022-11-09T03:41:45;100019.28;;;11.08;100.00
60355;BME280;46198;51.464;-0.066;2022-11-09T03:44:13;100025.69;;;11.02;100.00
60355;BME280;46198;51.464;-0.066;2022-11-09T03:46:41;100020.81;;;11.04;100.00
60355;BME280;46198;51.464;-0.066;2022-11-09T03:49:09;100022.72;;;11.04;100.00
60355;BME280;46198;51.464;-0.066;2022-11-09T03:51:37;100040.22;;;10.96;100.00
60355;BME280;46198;51.464;-0.066;2022-11-09T03:54:06;100034.91;;;11.01;100.00
60355;BME280;46198;51.464;-0.066;2022-11-09T03:56:34;100046.75;;;10.95;100.00
60355;BME280;46198;51.464;-0.066;2022-11-09T03:59:03;100048.16;;;10.98;100.00
60355;BME280;46198;51.464;-0.066;2022-11-09T04:01:32;100046.41;;;10.92;100.00
60355;BME280;46198;51.464;-0.066;2022-11-09T04:04:00;100055.28;;;10.87;100.00
60355;BME280;46198;51.464;-0.066;2022-11-09T04:06:28;100053.84;;;10.84;100.00
60355;BME280;46198;51.464;-0.066;2022-11-09T04:08:56;100049.84;;;10.87;100.00
60355;BME280;46198;51.464;-0.066;2022-11-09T04:11:24;100055.59;;;10.91;100.00
60355;BME280;46198;51.464;-0.066;2022-11-09T04:13:52;100057.06;;;10.81;100.00
60355;BME280;46198;51.464;-0.066;2022-11-09T04:16:21;100059.63;;;10.88;100.00
60355;BME280;46198;51.464;-0.066;2022-11-09T04:18:49;100056.34;;;10.86;100.00
60355;BME280;46198;51.464;-0.066;2022-11-09T04:21:17;100057.53;;;10.78;100.00
60355;BME280;46198;51.464;-0.066;2022-11-09T04:23:50;100058.25;;;10.74;100.00
60355;BME280;46198;51.464;-0.066;2022-11-09T04:26:18;100064.75;;;10.73;100.00
60355;BME280;46198;51.464;-0.066;2022-11-09T04:28:46;100053.91;;;10.73;100.00
60355;BME280;46198;51.464;-0.066;2022-11-09T04:31:14;100062.03;;;10.73;100.00
60355;BME280;46198;51.464;-0.066;2022-11-09T04:33:48;100066.88;;;10.71;100.00
60355;BME280;46198;51.464;-0.066;2022-11-09T04:36:16;100060.38;;;10.72;100.00
60355;BME280;46198;51.464;-0.066;2022-11-09T04:38:44;100052.81;;;10.74;100.00
60355;BME280;46198;51.464;-0.066;2022-11-09T04:41:12;100059.66;;;10.76;100.00
60355;BME280;46198;51.464;-0.066;2022-11-09T04:43:41;100063.47;;;10.75;100.00
60355;BME280;46198;51.464;-0.066;2022-11-09T04:46:09;100060.00;;;10.80;100.00
60355;BME280;46198;51.464;-0.066;2022-11-09T04:48:37;100063.31;;;10.82;100.00
60355;BME280;46198;51.464;-0.066;2022-11-09T04:51:08;100061.41;;;10.82;100.00
60355;BME280;46198;51.464;-0.066;2022-11-09T04:53:37;100057.75;;;10.89;100.00
60355;BME280;46198;51.464;-0.066;2022-11-09T04:56:06;100066.63;;;10.84;100.00
60355;BME280;46198;51.464;-0.066;2022-11-09T04:58:35;100065.31;;;10.86;100.00
60355;BME280;46198;51.464;-0.066;2022-11-09T05:01:05;100075.22;;;10.93;100.00
60355;BME280;46198;51.464;-0.066;2022-11-09T05:03:33;100077.81;;;10.87;100.00
60355;BME280;46198;51.464;-0.066;2022-11-09T05:06:02;100079.34;;;10.95;100.00
60355;BME280;46198;51.464;-0.066;2022-11-09T05:08:52;100090.19;;;10.95;100.00
60355;BME280;46198;51.464;-0.066;2022-11-09T05:11:21;100088.78;;;10.93;100.00
60355;BME280;46198;51.464;-0.066;2022-11-09T05:13:49;100101.41;;;10.99;100.00
60355;BME280;46198;51.464;-0.066;2022-11-09T05:16:18;100099.91;;;10.91;100.00
60355;BME280;46198;51.464;-0.066;2022-11-09T05:18:46;100087.97;;;10.92;100.00
60355;BME280;46198;51.464;-0.066;2022-11-09T05:21:14;100093.66;;;10.79;100.00
60355;BME280;46198;51.464;-0.066;2022-11-09T05:23:43;100093.44;;;10.80;100.00
60355;BME280;46198;51.464;-0.066;2022-11-09T05:26:28;100115.03;;;10.63;100.00
60355;BME280;46198;51.464;-0.066;2022-11-09T05:28:57;100108.94;;;10.56;100.00
60355;BME280;46198;51.464;-0.066;2022-11-09T05:31:26;100094.28;;;10.57;100.00
60355;BME280;46198;51.464;-0.066;2022-11-09T05:33:55;100089.19;;;10.61;100.00
60355;BME280;46198;51.464;-0.066;2022-11-09T05:36:24;100099.59;;;10.52;100.00
60355;BME280;46198;51.464;-0.066;2022-11-09T05:38:53;100091.94;;;10.49;100.00
60355;BME280;46198;51.464;-0.066;2022-11-09T05:41:26;100097.97;;;10.51;100.00
60355;BME280;46198;51.464;-0.066;2022-11-09T05:43:54;100090.78;;;10.45;100.00
60355;BME280;46198;51.464;-0.066;2022-11-09T05:46:23;100090.06;;;10.38;100.00
60355;BME280;46198;51.464;-0.066;2022-11-09T05:48:51;100090.88;;;10.38;100.00
60355;BME280;46198;51.464;-0.066;2022-11-09T05:51:19;100092.28;;;10.41;100.00
60355;BME280;46198;51.464;-0.066;2022-11-09T05:53:47;100098.19;;;10.38;100.00
60355;BME280;46198;51.464;-0.066;2022-11-09T05:56:16;100098.53;;;10.41;100.00
60355;BME280;46198;51.464;-0.066;2022-11-09T05:58:45;100099.63;;;10.40;100.00
60355;BME280;46198;51.464;-0.066;2022-11-09T06:01:16;100100.91;;;10.38;100.00
60355;BME280;46198;51.464;-0.066;2022-11-09T06:03:44;100103.38;;;10.39;100.00
60355;BME280;46198;51.464;-0.066;2022-11-09T06:06:14;100097.59;;;10.36;100.00
60355;BME280;46198;51.464;-0.066;2022-11-09T06:08:43;100094.19;;;10.40;100.00
60355;BME280;46198;51.464;-0.066;2022-11-09T06:11:12;100092.78;;;10.38;100.00
60355;BME280;46198;51.464;-0.066;2022-11-09T06:13:50;100095.50;;;10.38;100.00
60355;BME280;46198;51.464;-0.066;2022-11-09T06:16:18;100086.16;;;10.34;100.00
60355;BME280;46198;51.464;-0.066;2022-11-09T06:18:46;100087.56;;;10.36;100.00
60355;BME280;46198;51.464;-0.066;2022-11-09T06:21:14;100087.72;;;10.30;100.00
60355;BME280;46198;51.464;-0.066;2022-11-09T06:23:43;100098.56;;;10.30;100.00
60355;BME280;46198;51.464;-0.066;2022-11-09T06:26:11;100096.91;;;10.29;100.00
60355;BME280;46198;51.464;-0.066;2022-11-09T06:28:40;100107.38;;;10.25;100.00
60355;BME280;46198;51.464;-0.066;2022-11-09T06:31:11;100115.38;;;10.20;100.00
60355;BME280;46198;51.464;-0.066;2022-11-09T06:33:40;100126.00;;;10.21;100.00
60355;BME280;46198;51.464;-0.066;2022-11-09T06:36:09;100131.09;;;10.18;100.00
60355;BME280;46198;51.464;-0.066;2022-11-09T06:38:37;100141.09;;;10.17;100.00
60355;BME280;46198;51.464;-0.066;2022-11-09T06:41:06;100138.38;;;10.17;100.00
60355;BME280;46198;51.464;-0.066;2022-11-09T06:43:34;100128.94;;;10.20;100.00
60355;BME280;46198;51.464;-0.066;2022-11-09T06:46:03;100135.09;;;10.15;100.00
60355;BME280;46198;51.464;-0.066;2022-11-09T06:48:33;100143.22;;;10.15;100.00
60355;BME280;46198;51.464;-0.066;2022-11-09T06:51:02;100150.16;;;10.11;100.00
60355;BME280;46198;51.464;-0.066;2022-11-09T06:53:31;100152.28;;;10.09;100.00
60355;BME280;46198;51.464;-0.066;2022-11-09T06:56:00;100160.56;;;10.14;100.00
60355;BME280;46198;51.464;-0.066;2022-11-09T06:58:29;100163.03;;;10.16;100.00
60355;BME280;46198;51.464;-0.066;2022-11-09T07:00:57;100161.63;;;10.13;100.00
60355;BME280;46198;51.464;-0.066;2022-11-09T07:03:25;100169.06;;;10.18;100.00
60355;BME280;46198;51.464;-0.066;2022-11-09T07:05:55;100179.31;;;10.16;100.00
60355;BME280;46198;51.464;-0.066;2022-11-09T07:08:25;100179.78;;;10.13;100.00
60355;BME280;46198;51.464;-0.066;2022-11-09T07:10:53;100183.69;;;10.17;100.00
60355;BME280;46198;51.464;-0.066;2022-11-09T07:13:21;100189.69;;;10.19;100.00
60355;BME280;46198;51.464;-0.066;2022-11-09T07:15:52;100198.06;;;10.17;100.00
60355;BME280;46198;51.464;-0.066;2022-11-09T07:18:21;100200.19;;;10.15;100.00
60355;BME280;46198;51.464;-0.066;2022-11-09T07:20:49;100208.47;;;10.20;100.00
60355;BME280;46198;51.464;-0.066;2022-11-09T07:23:19;100210.59;;;10.18;100.00
60355;BME280;46198;51.464;-0.066;2022-11-09T07:25:48;100219.75;;;10.17;100.00
60355;BME280;46198;51.464;-0.066;2022-11-09T07:28:17;100218.25;;;10.21;100.00
60355;BME280;46198;51.464;-0.066;2022-11-09T07:30:45;100227.38;;;10.27;100.00
60355;BME280;46198;51.464;-0.066;2022-11-09T07:33:16;100232.91;;;10.20;100.00
60355;BME280;46198;51.464;-0.066;2022-11-09T07:35:45;100228.03;;;10.23;100.00
60355;BME280;46198;51.464;-0.066;2022-11-09T07:38:13;100234.28;;;10.23;100.00
60355;BME280;46198;51.464;-0.066;2022-11-09T07:40:44;100228.50;;;10.19;100.00
60355;BME280;46198;51.464;-0.066;2022-11-09T07:43:12;100243.50;;;10.22;100.00
60355;BME280;46198;51.464;-0.066;2022-11-09T07:45:41;100258.13;;;10.21;100.00
60355;BME280;46198;51.464;-0.066;2022-11-09T07:48:10;100265.06;;;10.17;100.00
60355;BME280;46198;51.464;-0.066;2022-11-09T07:50:39;100274.88;;;10.18;100.00
60355;BME280;46198;51.464;-0.066;2022-11-09T07:53:09;100270.28;;;10.18;100.00
60355;BME280;46198;51.464;-0.066;2022-11-09T07:55:38;100266.75;;;10.18;100.00
60355;BME280;46198;51.464;-0.066;2022-11-09T07:58:10;100273.44;;;10.15;100.00
60355;BME280;46198;51.464;-0.066;2022-11-09T08:00:40;100269.06;;;10.14;100.00
60355;BME280;46198;51.464;-0.066;2022-11-09T08:03:08;100282.16;;;10.17;100.00
60355;BME280;46198;51.464;-0.066;2022-11-09T08:05:37;100280.53;;;10.16;100.00
60355;BME280;46198;51.464;-0.066;2022-11-09T08:08:08;100286.91;;;10.22;100.00
60355;BME280;46198;51.464;-0.066;2022-11-09T08:10:37;100299.03;;;10.19;100.00
60355;BME280;46198;51.464;-0.066;2022-11-09T08:13:09;100301.28;;;10.23;100.00
60355;BME280;46198;51.464;-0.066;2022-11-09T08:15:38;100301.53;;;10.21;100.00
60355;BME280;46198;51.464;-0.066;2022-11-09T08:18:08;100315.03;;;10.28;100.00
60355;BME280;46198;51.464;-0.066;2022-11-09T08:20:37;100316.38;;;10.37;100.00
60355;BME280;46198;51.464;-0.066;2022-11-09T08:23:05;100309.28;;;10.36;100.00
60355;BME280;46198;51.464;-0.066;2022-11-09T08:25:34;100312.47;;;10.45;100.00
60355;BME280;46198;51.464;-0.066;2022-11-09T08:28:02;100316.63;;;10.47;100.00
60355;BME280;46198;51.464;-0.066;2022-11-09T08:30:32;100319.47;;;10.52;100.00
60355;BME280;46198;51.464;-0.066;2022-11-09T08:33:01;100330.34;;;10.52;100.00
60355;BME280;46198;51.464;-0.066;2022-11-09T08:35:29;100327.88;;;10.51;100.00
60355;BME280;46198;51.464;-0.066;2022-11-09T08:38:00;100336.38;;;10.54;100.00
60355;BME280;46198;51.464;-0.066;2022-11-09T08:40:30;100349.47;;;10.57;100.00
60355;BME280;46198;51.464;-0.066;2022-11-09T08:43:03;100349.59;;;10.62;100.00
60355;BME280;46198;51.464;-0.066;2022-11-09T08:45:35;100344.31;;;10.68;100.00
60355;BME280;46198;51.464;-0.066;2022-11-09T08:48:03;100352.47;;;10.68;100.00
60355;BME280;46198;51.464;-0.066;2022-11-09T08:50:35;100365.34;;;10.72;100.00
60355;BME280;46198;51.464;-0.066;2022-11-09T08:53:04;100371.00;;;10.71;100.00
60355;BME280;46198;51.464;-0.066;2022-11-09T08:55:33;100379.50;;;10.74;100.00
60355;BME280;46198;51.464;-0.066;2022-11-09T08:58:02;100384.72;;;10.76;100.00
60355;BME280;46198;51.464;-0.066;2022-11-09T09:00:32;100393.91;;;10.75;100.00
60355;BME280;46198;51.464;-0.066;2022-11-09T09:03:02;100395.09;;;10.79;100.00
60355;BME280;46198;51.464;-0.066;2022-11-09T09:05:30;100417.91;;;10.78;100.00
60355;BME280;46198;51.464;-0.066;2022-11-09T09:07:59;100412.59;;;10.83;100.00
60355;BME280;46198;51.464;-0.066;2022-11-09T09:10:27;100422.06;;;10.92;100.00
60355;BME280;46198;51.464;-0.066;2022-11-09T09:12:55;100422.75;;;10.87;100.00
60355;BME280;46198;51.464;-0.066;2022-11-09T09:15:24;100412.38;;;10.96;100.00
60355;BME280;46198;51.464;-0.066;2022-11-09T09:17:53;100421.47;;;11.02;100.00
60355;BME280;46198;51.464;-0.066;2022-11-09T09:20:21;100425.63;;;11.04;100.00
60355;BME280;46198;51.464;-0.066;2022-11-09T09:22:49;100435.59;;;11.11;100.00
60355;BME280;46198;51.464;-0.066;2022-11-09T09:25:17;100434.28;;;11.13;100.00
60355;BME280;46198;51.464;-0.066;2022-11-09T09:27:45;100441.84;;;11.23;100.00
60355;BME280;46198;51.464;-0.066;2022-11-09T09:30:14;100458.50;;;11.15;100.00
60355;BME280;46198;51.464;-0.066;2022-11-09T09:32:42;100448.97;;;11.24;100.00
60355;BME280;46198;51.464;-0.066;2022-11-09T09:35:12;100453.47;;;11.30;100.00
60355;BME280;46198;51.464;-0.066;2022-11-09T09:37:41;100455.47;;;11.35;100.00
60355;BME280;46198;51.464;-0.066;2022-11-09T09:40:19;100451.34;;;11.44;100.00
60355;BME280;46198;51.464;-0.066;2022-11-09T09:42:52;100457.34;;;11.34;100.00
60355;BME280;46198;51.464;-0.066;2022-11-09T09:45:21;100468.47;;;11.44;100.00
60355;BME280;46198;51.464;-0.066;2022-11-09T09:47:54;100475.00;;;11.55;100.00
60355;BME280;46198;51.464;-0.066;2022-11-09T09:50:27;100479.13;;;11.46;100.00
60355;BME280;46198;51.464;-0.066;2022-11-09T09:53:00;100473.47;;;11.59;100.00
60355;BME280;46198;51.464;-0.066;2022-11-09T09:55:52;100489.06;;;11.64;100.00
60355;BME280;46198;51.464;-0.066;2022-11-09T09:58:24;100484.22;;;11.66;100.00
60355;BME280;46198;51.464;-0.066;2022-11-09T10:00:57;100493.94;;;11.73;100.00
60355;BME280;46198;51.464;-0.066;2022-11-09T10:03:27;100490.59;;;11.71;100.00
60355;BME280;46198;51.464;-0.066;2022-11-09T10:06:01;100497.47;;;11.74;100.00
60355;BME280;46198;51.464;-0.066;2022-11-09T10:08:40;100504.09;;;11.66;100.00
60355;BME280;46198;51.464;-0.066;2022-11-09T10:11:19;100502.31;;;11.72;100.00
60355;BME280;46198;51.464;-0.066;2022-11-09T10:14:10;100513.09;;;11.79;100.00
60355;BME280;46198;51.464;-0.066;2022-11-09T10:16:47;100520.69;;;11.88;100.00
60355;BME280;46198;51.464;-0.066;2022-11-09T10:19:34;100510.75;;;11.94;100.00
60355;BME280;46198;51.464;-0.066;2022-11-09T10:22:11;100529.56;;;11.95;100.00
60355;BME280;46198;51.464;-0.066;2022-11-09T10:24:50;100523.44;;;12.00;100.00
60355;BME280;46198;51.464;-0.066;2022-11-09T10:27:44;100535.72;;;11.91;100.00
60355;BME280;46198;51.464;-0.066;2022-11-09T10:30:18;100548.63;;;11.95;100.00
60355;BME280;46198;51.464;-0.066;2022-11-09T10:32:49;100546.97;;;12.06;100.00
60355;BME280;46198;51.464;-0.066;2022-11-09T10:35:20;100546.38;;;12.16;100.00
60355;BME280;46198;51.464;-0.066;2022-11-09T10:37:51;100552.75;;;12.22;100.00
60355;BME280;46198;51.464;-0.066;2022-11-09T10:40:23;100557.00;;;12.29;100.00
60355;BME280;46198;51.464;-0.066;2022-11-09T10:43:13;100554.75;;;12.38;100.00
60355;BME280;46198;51.464;-0.066;2022-11-09T10:46:01;100570.00;;;12.51;100.00
60355;BME280;46198;51.464;-0.066;2022-11-09T10:48:50;100570.56;;;12.64;100.00
60355;BME280;46198;51.464;-0.066;2022-11-09T10:51:39;100579.81;;;12.63;100.00
60355;BME280;46198;51.464;-0.066;2022-11-09T10:54:29;100579.34;;;12.55;100.00
60355;BME280;46198;51.464;-0.066;2022-11-09T10:57:18;100580.28;;;12.60;100.00
60355;BME280;46198;51.464;-0.066;2022-11-09T11:00:13;100577.69;;;12.66;100.00
60355;BME280;46198;51.464;-0.066;2022-11-09T11:03:10;100579.22;;;12.73;100.00
60355;BME280;46198;51.464;-0.066;2022-11-09T11:06:01;100583.00;;;12.72;100.00
60355;BME280;46198;51.464;-0.066;2022-11-09T11:08:49;100593.53;;;12.69;100.00
60355;BME280;46198;51.464;-0.066;2022-11-09T11:11:39;100592.72;;;12.68;100.00
60355;BME280;46198;51.464;-0.066;2022-11-09T11:14:29;100593.53;;;12.69;100.00
60355;BME280;46198;51.464;-0.066;2022-11-09T11:17:21;100608.31;;;12.84;100.00
60355;BME280;46198;51.464;-0.066;2022-11-09T11:20:28;100611.97;;;12.90;100.00
60355;BME280;46198;51.464;-0.066;2022-11-09T11:23:17;100602.41;;;12.88;100.00
60355;BME280;46198;51.464;-0.066;2022-11-09T11:26:25;100597.66;;;12.95;100.00
60355;BME280;46198;51.464;-0.066;2022-11-09T11:29:36;100609.81;;;13.04;100.00
60355;BME280;46198;51.464;-0.066;2022-11-09T11:32:24;100592.59;;;13.15;100.00
60355;BME280;46198;51.464;-0.066;2022-11-09T11:35:13;100610.00;;;13.26;100.00
60355;BME280;46198;51.464;-0.066;2022-11-09T11:38:15;100615.78;;;13.29;100.00
60355;BME280;46198;51.464;-0.066;2022-11-09T11:41:29;100620.34;;;13.12;100.00
60355;BME280;46198;51.464;-0.066;2022-11-09T11:44:44;100622.34;;;13.17;98.68
60355;BME280;46198;51.464;-0.066;2022-11-09T11:48:03;100635.13;;;13.16;98.52
60355;BME280;46198;51.464;-0.066;2022-11-09T11:50:58;100626.38;;;13.14;100.00
60355;BME280;46198;51.464;-0.066;2022-11-09T11:53:56;100634.91;;;13.18;100.00
60355;BME280;46198;51.464;-0.066;2022-11-09T11:56:58;100647.00;;;13.22;99.01
60355;BME280;46198;51.464;-0.066;2022-11-09T12:00:09;100648.63;;;13.23;94.67
60355;BME280;46198;51.464;-0.066;2022-11-09T12:03:22;100656.13;;;13.27;98.10
60355;BME280;46198;51.464;-0.066;2022-11-09T12:06:28;100652.03;;;13.42;98.33
60355;BME280;46198;51.464;-0.066;2022-11-09T12:09:38;100653.13;;;13.29;94.25
60355;BME280;46198;51.464;-0.066;2022-11-09T12:12:37;100665.47;;;13.20;97.23
60355;BME280;46198;51.464;-0.066;2022-11-09T12:15:35;100664.00;;;13.41;92.71
60355;BME280;46198;51.464;-0.066;2022-11-09T12:18:36;100665.97;;;13.57;93.59
60355;BME280;46198;51.464;-0.066;2022-11-09T12:21:30;100670.97;;;13.77;93.52
60355;BME280;46198;51.464;-0.066;2022-11-09T12:24:26;100670.06;;;13.71;89.86
60355;BME280;46198;51.464;-0.066;2022-11-09T12:27:33;100669.75;;;13.85;91.33
60355;BME280;46198;51.464;-0.066;2022-11-09T12:30:26;100675.44;;;13.83;92.41
60355;BME280;46198;51.464;-0.066;2022-11-09T12:33:21;100677.34;;;13.83;91.60
60355;BME280;46198;51.464;-0.066;2022-11-09T12:36:21;100678.44;;;13.82;93.76
60355;BME280;46198;51.464;-0.066;2022-11-09T12:39:13;100679.09;;;13.89;91.02
60355;BME280;46198;51.464;-0.066;2022-11-09T12:42:05;100671.72;;;13.89;90.26
60355;BME280;46198;51.464;-0.066;2022-11-09T12:45:02;100680.81;;;13.78;90.32
60355;BME280;46198;51.464;-0.066;2022-11-09T12:47:49;100678.06;;;14.07;93.86
60355;BME280;46198;51.464;-0.066;2022-11-09T12:50:40;100683.09;;;13.98;88.91
60355;BME280;46198;51.464;-0.066;2022-11-09T12:53:31;100674.31;;;13.96;94.44
60355;BME280;46198;51.464;-0.066;2022-11-09T12:56:21;100684.75;;;13.99;86.40
60355;BME280;46198;51.464;-0.066;2022-11-09T12:59:19;100686.38;;;14.00;87.22
60355;BME280;46198;51.464;-0.066;2022-11-09T13:02:19;100691.59;;;13.85;88.06
60355;BME280;46198;51.464;-0.066;2022-11-09T13:05:27;100696.84;;;13.74;88.53
60355;BME280;46198;51.464;-0.066;2022-11-09T13:08:19;100702.69;;;13.66;86.87
60355;BME280;46198;51.464;-0.066;2022-11-09T13:11:17;100709.75;;;13.50;86.70